sensor_id;sensor_type;location;lat;lon;timestamp;P1;P2;P0
62591;PMS5003;48659;41.622;2.276;2022-12-16T00:00:23;63;57;
62591;PMS5003;48659;41.622;2.276;2022-12-16T00:02:51;54;51;
62591;PMS5003;48659;41.622;2.276;2022-12-16T00:05:19;56;52;
62591;PMS5003;48659;41.622;2.276;2022-12-16T00:07:46;57;51;
62591;PMS5003;48659;41.622;2.276;2022-12-16T00:10:14;58;56;
62591;PMS5003;48659;41.622;2.276;2022-12-16T00:13:00;56;52;
62591;PMS5003;48659;41.622;2.276;2022-12-16T00:15:28;63;58;
62591;PMS5003;48659;41.622;2.276;2022-12-16T00:17:55;61;55;
62591;PMS5003;48659;41.622;2.276;2022-12-16T00:20:22;59;58;
62591;PMS5003;48659;41.622;2.276;2022-12-16T00:22:50;59;54;
62591;PMS5003;48659;41.622;2.276;2022-12-16T00:25:18;60;56;
62591;PMS5003;48659;41.622;2.276;2022-12-16T00:28:01;64;55;
62591;PMS5003;48659;41.622;2.276;2022-12-16T00:30:29;60;56;
62591;PMS5003;48659;41.622;2.276;2022-12-16T00:33:14;64;60;
62591;PMS5003;48659;41.622;2.276;2022-12-16T00:33:32;64;60;
62591;PMS5003;48659;41.622;2.276;2022-12-16T00:35:59;62;62;
62591;PMS5003;48659;41.622;2.276;2022-12-16T00:38:29;59;55;
62591;PMS5003;48659;41.622;2.276;2022-12-16T00:40:57;57;53;
62591;PMS5003;48659;41.622;2.276;2022-12-16T00:43:24;65;61;
62591;PMS5003;48659;41.622;2.276;2022-12-16T00:45:51;52;48;
62591;PMS5003;48659;41.622;2.276;2022-12-16T00:48:19;60;57;
62591;PMS5003;48659;41.622;2.276;2022-12-16T00:50:48;58;54;
62591;PMS5003;48659;41.622;2.276;2022-12-16T00:53:16;65;60;
62591;PMS5003;48659;41.622;2.276;2022-12-16T00:55:45;58;57;
62591;PMS5003;48659;41.622;2.276;2022-12-16T00:58:13;53;49;
62591;PMS5003;48659;41.622;2.276;2022-12-16T01:00:40;61;50;
62591;PMS5003;48659;41.622;2.276;2022-12-16T01:03:07;58;54;
62591;PMS5003;48659;41.622;2.276;2022-12-16T01:05:36;49;49;
62591;PMS5003;48659;41.622;2.276;2022-12-16T01:08:04;59;55;
62591;PMS5003;48659;41.622;2.276;2022-12-16T01:10:32;50;46;
62591;PMS5003;48659;41.622;2.276;2022-12-16T01:13:00;55;50;
62591;PMS5003;48659;41.622;2.276;2022-12-16T01:15:32;48;47;
62591;PMS5003;48659;41.622;2.276;2022-12-16T01:17:59;49;46;
62591;PMS5003;48659;41.622;2.276;2022-12-16T01:20:27;61;50;
62591;PMS5003;48659;41.622;2.276;2022-12-16T01:22:55;54;52;
62591;PMS5003;48659;41.622;2.276;2022-12-16T01:25:22;71;70;
62591;PMS5003;48659;41.622;2.276;2022-12-16T01:27:49;76;69;
62591;PMS5003;48659;41.622;2.276;2022-12-16T01:30:17;85;73;
62591;PMS5003;48659;41.622;2.276;2022-12-16T01:32:45;69;68;
62591;PMS5003;48659;41.622;2.276;2022-12-16T01:35:12;74;61;
62591;PMS5003;48659;41.622;2.276;2022-12-16T01:37:40;69;64;
62591;PMS5003;48659;41.622;2.276;2022-12-16T01:40:08;72;64;
62591;PMS5003;48659;41.622;2.276;2022-12-16T01:42:44;79;75;
62591;PMS5003;48659;41.622;2.276;2022-12-16T01:45:44;84;80;
62591;PMS5003;48659;41.622;2.276;2022-12-16T01:48:13;83;73;
62591;PMS5003;48659;41.622;2.276;2022-12-16T01:50:47;79;74;
62591;PMS5003;48659;41.622;2.276;2022-12-16T01:53:16;88;78;
62591;PMS5003;48659;41.622;2.276;2022-12-16T01:55:45;103;80;
62591;PMS5003;48659;41.622;2.276;2022-12-16T01:58:17;83;78;
62591;PMS5003;48659;41.622;2.276;2022-12-16T02:00:49;75;68;
62591;PMS5003;48659;41.622;2.276;2022-12-16T02:03:17;71;68;
62591;PMS5003;48659;41.622;2.276;2022-12-16T02:05:45;68;66;
62591;PMS5003;48659;41.622;2.276;2022-12-16T02:08:14;79;72;
62591;PMS5003;48659;41.622;2.276;2022-12-16T02:10:47;71;68;
62591;PMS5003;48659;41.622;2.276;2022-12-16T02:13:30;62;57;
62591;PMS5003;48659;41.622;2.276;2022-12-16T02:16:06;70;62;
62591;PMS5003;48659;41.622;2.276;2022-12-16T02:18:40;48;43;
62591;PMS5003;48659;41.622;2.276;2022-12-16T02:21:17;81;72;
62591;PMS5003;48659;41.622;2.276;2022-12-16T02:24:25;66;64;
62591;PMS5003;48659;41.622;2.276;2022-12-16T02:27:50;75;68;
62591;PMS5003;48659;41.622;2.276;2022-12-16T02:30:27;75;74;
62591;PMS5003;48659;41.622;2.276;2022-12-16T02:33:07;77;63;
62591;PMS5003;48659;41.622;2.276;2022-12-16T02:35:46;70;58;
62591;PMS5003;48659;41.622;2.276;2022-12-16T02:38:25;55;53;
62591;PMS5003;48659;41.622;2.276;2022-12-16T02:40:59;59;54;
62591;PMS5003;48659;41.622;2.276;2022-12-16T02:43:34;66;58;
62591;PMS5003;48659;41.622;2.276;2022-12-16T02:46:16;52;48;
62591;PMS5003;48659;41.622;2.276;2022-12-16T02:48:45;57;53;
62591;PMS5003;48659;41.622;2.276;2022-12-16T02:51:13;54;48;
62591;PMS5003;48659;41.622;2.276;2022-12-16T02:53:41;52;47;
62591;PMS5003;48659;41.622;2.276;2022-12-16T02:56:13;64;54;
62591;PMS5003;48659;41.622;2.276;2022-12-16T02:58:52;46;37;
62591;PMS5003;48659;41.622;2.276;2022-12-16T03:01:34;44;40;
62591;PMS5003;48659;41.622;2.276;2022-12-16T03:04:06;27;27;
62591;PMS5003;48659;41.622;2.276;2022-12-16T03:06:38;27;25;
62591;PMS5003;48659;41.622;2.276;2022-12-16T03:09:09;24;21;
62591;PMS5003;48659;41.622;2.276;2022-12-16T03:11:40;31;29;
62591;PMS5003;48659;41.622;2.276;2022-12-16T03:14:13;34;30;
62591;PMS5003;48659;41.622;2.276;2022-12-16T03:16:44;28;28;
62591;PMS5003;48659;41.622;2.276;2022-12-16T03:19:13;35;31;
62591;PMS5003;48659;41.622;2.276;2022-12-16T03:21:42;38;35;
62591;PMS5003;48659;41.622;2.276;2022-12-16T03:24:15;37;33;
62591;PMS5003;48659;41.622;2.276;2022-12-16T03:26:46;27;22;
62591;PMS5003;48659;41.622;2.276;2022-12-16T03:29:31;31;28;
62591;PMS5003;48659;41.622;2.276;2022-12-16T03:32:07;27;27;
62591;PMS5003;48659;41.622;2.276;2022-12-16T03:34:39;27;24;
62591;PMS5003;48659;41.622;2.276;2022-12-16T03:37:12;23;20;
62591;PMS5003;48659;41.622;2.276;2022-12-16T03:39:41;19;16;
62591;PMS5003;48659;41.622;2.276;2022-12-16T03:42:12;25;22;
62591;PMS5003;48659;41.622;2.276;2022-12-16T03:44:41;32;28;
62591;PMS5003;48659;41.622;2.276;2022-12-16T03:47:10;33;33;
62591;PMS5003;48659;41.622;2.276;2022-12-16T03:49:39;26;24;
62591;PMS5003;48659;41.622;2.276;2022-12-16T03:52:06;32;27;
62591;PMS5003;48659;41.622;2.276;2022-12-16T03:54:34;32;30;
62591;PMS5003;48659;41.622;2.276;2022-12-16T03:57:02;30;29;
62591;PMS5003;48659;41.622;2.276;2022-12-16T03:59:29;36;33;
62591;PMS5003;48659;41.622;2.276;2022-12-16T04:01:56;29;28;
62591;PMS5003;48659;41.622;2.276;2022-12-16T04:04:29;27;27;
62591;PMS5003;48659;41.622;2.276;2022-12-16T04:06:57;29;26;
62591;PMS5003;48659;41.622;2.276;2022-12-16T04:09:24;33;29;
62591;PMS5003;48659;41.622;2.276;2022-12-16T04:11:51;34;32;
62591;PMS5003;48659;41.622;2.276;2022-12-16T04:14:19;33;32;
62591;PMS5003;48659;41.622;2.276;2022-12-16T04:16:47;42;41;
62591;PMS5003;48659;41.622;2.276;2022-12-16T04:19:17;40;38;
62591;PMS5003;48659;41.622;2.276;2022-12-16T04:21:48;40;38;
62591;PMS5003;48659;41.622;2.276;2022-12-16T04:24:16;28;28;
62591;PMS5003;48659;41.622;2.276;2022-12-16T04:26:45;32;29;
62591;PMS5003;48659;41.622;2.276;2022-12-16T04:29:13;28;28;
62591;PMS5003;48659;41.622;2.276;2022-12-16T04:31:41;29;26;
62591;PMS5003;48659;41.622;2.276;2022-12-16T04:34:09;32;29;
62591;PMS5003;48659;41.622;2.276;2022-12-16T04:36:36;32;31;
62591;PMS5003;48659;41.622;2.276;2022-12-16T04:39:03;35;30;
62591;PMS5003;48659;41.622;2.276;2022-12-16T04:41:31;40;38;
62591;PMS5003;48659;41.622;2.276;2022-12-16T04:43:58;36;34;
62591;PMS5003;48659;41.622;2.276;2022-12-16T04:46:26;42;40;
62591;PMS5003;48659;41.622;2.276;2022-12-16T04:48:54;42;41;
62591;PMS5003;48659;41.622;2.276;2022-12-16T04:51:32;40;40;
62591;PMS5003;48659;41.622;2.276;2022-12-16T04:53:59;45;44;
62591;PMS5003;48659;41.622;2.276;2022-12-16T04:56:27;51;49;
62591;PMS5003;48659;41.622;2.276;2022-12-16T04:58:54;46;42;
62591;PMS5003;48659;41.622;2.276;2022-12-16T05:01:22;39;34;
62591;PMS5003;48659;41.622;2.276;2022-12-16T05:03:49;44;38;
62591;PMS5003;48659;41.622;2.276;2022-12-16T05:06:17;38;37;
62591;PMS5003;48659;41.622;2.276;2022-12-16T05:08:51;40;39;
62591;PMS5003;48659;41.622;2.276;2022-12-16T05:11:20;47;44;
62591;PMS5003;48659;41.622;2.276;2022-12-16T05:13:48;59;48;
62591;PMS5003;48659;41.622;2.276;2022-12-16T05:16:15;31;29;
62591;PMS5003;48659;41.622;2.276;2022-12-16T05:18:43;34;32;
62591;PMS5003;48659;41.622;2.276;2022-12-16T05:21:10;45;40;
62591;PMS5003;48659;41.622;2.276;2022-12-16T05:23:38;37;35;
62591;PMS5003;48659;41.622;2.276;2022-12-16T05:26:05;37;37;
62591;PMS5003;48659;41.622;2.276;2022-12-16T05:28:33;35;34;
62591;PMS5003;48659;41.622;2.276;2022-12-16T05:31:00;40;37;
62591;PMS5003;48659;41.622;2.276;2022-12-16T05:33:28;42;38;
62591;PMS5003;48659;41.622;2.276;2022-12-16T05:35:55;45;44;
62591;PMS5003;48659;41.622;2.276;2022-12-16T05:38:26;40;38;
62591;PMS5003;48659;41.622;2.276;2022-12-16T05:40:54;40;39;
62591;PMS5003;48659;41.622;2.276;2022-12-16T05:43:21;41;37;
62591;PMS5003;48659;41.622;2.276;2022-12-16T05:45:48;38;37;
62591;PMS5003;48659;41.622;2.276;2022-12-16T05:48:15;47;44;
62591;PMS5003;48659;41.622;2.276;2022-12-16T05:50:43;43;42;
62591;PMS5003;48659;41.622;2.276;2022-12-16T05:53:10;41;41;
62591;PMS5003;48659;41.622;2.276;2022-12-16T05:55:37;50;47;
62591;PMS5003;48659;41.622;2.276;2022-12-16T05:58:05;46;43;
62591;PMS5003;48659;41.622;2.276;2022-12-16T06:00:32;47;44;
62591;PMS5003;48659;41.622;2.276;2022-12-16T06:02:59;43;40;
62591;PMS5003;48659;41.622;2.276;2022-12-16T06:05:26;44;42;
62591;PMS5003;48659;41.622;2.276;2022-12-16T06:07:54;47;46;
62591;PMS5003;48659;41.622;2.276;2022-12-16T06:10:21;50;47;
62591;PMS5003;48659;41.622;2.276;2022-12-16T06:12:49;44;40;
62591;PMS5003;48659;41.622;2.276;2022-12-16T06:15:16;38;35;
62591;PMS5003;48659;41.622;2.276;2022-12-16T06:17:46;43;40;
62591;PMS5003;48659;41.622;2.276;2022-12-16T06:20:15;36;35;
62591;PMS5003;48659;41.622;2.276;2022-12-16T06:22:44;43;42;
62591;PMS5003;48659;41.622;2.276;2022-12-16T06:25:17;44;38;
62591;PMS5003;48659;41.622;2.276;2022-12-16T06:27:48;48;43;
62591;PMS5003;48659;41.622;2.276;2022-12-16T06:30:16;37;33;
62591;PMS5003;48659;41.622;2.276;2022-12-16T06:32:44;33;31;
62591;PMS5003;48659;41.622;2.276;2022-12-16T06:35:12;35;32;
62591;PMS5003;48659;41.622;2.276;2022-12-16T06:37:39;34;31;
62591;PMS5003;48659;41.622;2.276;2022-12-16T06:40:07;27;24;
62591;PMS5003;48659;41.622;2.276;2022-12-16T06:42:38;35;32;
62591;PMS5003;48659;41.622;2.276;2022-12-16T06:45:06;37;32;
62591;PMS5003;48659;41.622;2.276;2022-12-16T06:47:37;42;37;
62591;PMS5003;48659;41.622;2.276;2022-12-16T06:50:05;40;37;
62591;PMS5003;48659;41.622;2.276;2022-12-16T06:52:33;34;34;
62591;PMS5003;48659;41.622;2.276;2022-12-16T06:55:01;47;41;
62591;PMS5003;48659;41.622;2.276;2022-12-16T06:57:28;33;32;
62591;PMS5003;48659;41.622;2.276;2022-12-16T06:59:55;35;35;
62591;PMS5003;48659;41.622;2.276;2022-12-16T07:02:27;42;41;
62591;PMS5003;48659;41.622;2.276;2022-12-16T07:04:55;43;41;
62591;PMS5003;48659;41.622;2.276;2022-12-16T07:07:21;33;33;
62591;PMS5003;48659;41.622;2.276;2022-12-16T07:09:49;41;38;
62591;PMS5003;48659;41.622;2.276;2022-12-16T07:12:17;40;38;
62591;PMS5003;48659;41.622;2.276;2022-12-16T07:14:45;40;35;
62591;PMS5003;48659;41.622;2.276;2022-12-16T07:17:13;45;43;
62591;PMS5003;48659;41.622;2.276;2022-12-16T07:19:40;45;42;
62591;PMS5003;48659;41.622;2.276;2022-12-16T07:22:07;44;38;
62591;PMS5003;48659;41.622;2.276;2022-12-16T07:24:35;51;46;
62591;PMS5003;48659;41.622;2.276;2022-12-16T07:27:03;52;49;
62591;PMS5003;48659;41.622;2.276;2022-12-16T07:29:31;53;49;
62591;PMS5003;48659;41.622;2.276;2022-12-16T07:31:58;55;52;
62591;PMS5003;48659;41.622;2.276;2022-12-16T07:34:26;56;53;
62591;PMS5003;48659;41.622;2.276;2022-12-16T07:36:53;53;51;
62591;PMS5003;48659;41.622;2.276;2022-12-16T07:39:27;57;55;
62591;PMS5003;48659;41.622;2.276;2022-12-16T07:41:55;61;55;
62591;PMS5003;48659;41.622;2.276;2022-12-16T07:44:26;56;55;
62591;PMS5003;48659;41.622;2.276;2022-12-16T07:46:54;55;50;
62591;PMS5003;48659;41.622;2.276;2022-12-16T07:49:27;52;51;
62591;PMS5003;48659;41.622;2.276;2022-12-16T07:51:54;45;45;
62591;PMS5003;48659;41.622;2.276;2022-12-16T07:54:27;58;53;
62591;PMS5003;48659;41.622;2.276;2022-12-16T07:56:54;56;49;
62591;PMS5003;48659;41.622;2.276;2022-12-16T07:59:27;53;51;
62591;PMS5003;48659;41.622;2.276;2022-12-16T08:01:55;53;51;
62591;PMS5003;48659;41.622;2.276;2022-12-16T08:04:27;53;53;
62591;PMS5003;48659;41.622;2.276;2022-12-16T08:06:55;52;52;
62591;PMS5003;48659;41.622;2.276;2022-12-16T08:09:25;55;51;
62591;PMS5003;48659;41.622;2.276;2022-12-16T08:11:53;55;52;
62591;PMS5003;48659;41.622;2.276;2022-12-16T08:14:26;58;52;
62591;PMS5003;48659;41.622;2.276;2022-12-16T08:16:54;61;55;
62591;PMS5003;48659;41.622;2.276;2022-12-16T08:19:26;56;52;
62591;PMS5003;48659;41.622;2.276;2022-12-16T08:21:53;61;58;
62591;PMS5003;48659;41.622;2.276;2022-12-16T08:24:26;57;52;
62591;PMS5003;48659;41.622;2.276;2022-12-16T08:26:53;58;57;
62591;PMS5003;48659;41.622;2.276;2022-12-16T08:29:20;55;52;
62591;PMS5003;48659;41.622;2.276;2022-12-16T08:31:49;64;60;
62591;PMS5003;48659;41.622;2.276;2022-12-16T08:34:17;59;54;
62591;PMS5003;48659;41.622;2.276;2022-12-16T08:36:44;70;61;
62591;PMS5003;48659;41.622;2.276;2022-12-16T08:39:11;61;56;
62591;PMS5003;48659;41.622;2.276;2022-12-16T08:41:38;51;48;
62591;PMS5003;48659;41.622;2.276;2022-12-16T08:44:06;61;60;
62591;PMS5003;48659;41.622;2.276;2022-12-16T08:46:33;59;56;
62591;PMS5003;48659;41.622;2.276;2022-12-16T08:49:00;61;58;
62591;PMS5003;48659;41.622;2.276;2022-12-16T08:51:28;54;49;
62591;PMS5003;48659;41.622;2.276;2022-12-16T08:53:55;59;51;
62591;PMS5003;48659;41.622;2.276;2022-12-16T08:56:26;60;58;
62591;PMS5003;48659;41.622;2.276;2022-12-16T08:58:54;58;50;
62591;PMS5003;48659;41.622;2.276;2022-12-16T09:01:27;66;56;
62591;PMS5003;48659;41.622;2.276;2022-12-16T09:03:55;62;57;
62591;PMS5003;48659;41.622;2.276;2022-12-16T09:06:27;53;51;
62591;PMS5003;48659;41.622;2.276;2022-12-16T09:08:54;53;51;
62591;PMS5003;48659;41.622;2.276;2022-12-16T09:11:28;56;52;
62591;PMS5003;48659;41.622;2.276;2022-12-16T09:13:56;56;54;
62591;PMS5003;48659;41.622;2.276;2022-12-16T09:16:27;55;52;
62591;PMS5003;48659;41.622;2.276;2022-12-16T09:18:54;55;51;
62591;PMS5003;48659;41.622;2.276;2022-12-16T09:21:27;49;46;
62591;PMS5003;48659;41.622;2.276;2022-12-16T09:23:55;67;61;
62591;PMS5003;48659;41.622;2.276;2022-12-16T09:26:27;49;43;
62591;PMS5003;48659;41.622;2.276;2022-12-16T09:28:55;52;51;
62591;PMS5003;48659;41.622;2.276;2022-12-16T09:31:26;45;44;
62591;PMS5003;48659;41.622;2.276;2022-12-16T09:33:53;51;44;
62591;PMS5003;48659;41.622;2.276;2022-12-16T09:36:21;43;41;
62591;PMS5003;48659;41.622;2.276;2022-12-16T09:38:48;62;51;
62591;PMS5003;48659;41.622;2.276;2022-12-16T09:41:36;39;35;
62591;PMS5003;48659;41.622;2.276;2022-12-16T09:44:09;26;26;
62591;PMS5003;48659;41.622;2.276;2022-12-16T09:46:47;19;18;
62591;PMS5003;48659;41.622;2.276;2022-12-16T09:49:29;15;15;
62591;PMS5003;48659;41.622;2.276;2022-12-16T09:52:08;15;14;
62591;PMS5003;48659;41.622;2.276;2022-12-16T09:54:40;17;16;
62591;PMS5003;48659;41.622;2.276;2022-12-16T09:57:11;10;10;
62591;PMS5003;48659;41.622;2.276;2022-12-16T09:59:41;11;9;
62591;PMS5003;48659;41.622;2.276;2022-12-16T10:02:16;10;10;
62591;PMS5003;48659;41.622;2.276;2022-12-16T10:04:45;11;11;
62591;PMS5003;48659;41.622;2.276;2022-12-16T10:07:17;9;9;
62591;PMS5003;48659;41.622;2.276;2022-12-16T10:09:49;8;8;
62591;PMS5003;48659;41.622;2.276;2022-12-16T10:12:24;8;8;
62591;PMS5003;48659;41.622;2.276;2022-12-16T10:14:59;8;8;
62591;PMS5003;48659;41.622;2.276;2022-12-16T10:17:34;7;7;
62591;PMS5003;48659;41.622;2.276;2022-12-16T10:20:08;9;7;
62591;PMS5003;48659;41.622;2.276;2022-12-16T10:22:46;8;8;
62591;PMS5003;48659;41.622;2.276;2022-12-16T10:25:28;9;9;
62591;PMS5003;48659;41.622;2.276;2022-12-16T10:28:04;6;6;
62591;PMS5003;48659;41.622;2.276;2022-12-16T10:30:41;8;8;
62591;PMS5003;48659;41.622;2.276;2022-12-16T10:33:09;7;7;
62591;PMS5003;48659;41.622;2.276;2022-12-16T10:35:41;8;8;
62591;PMS5003;48659;41.622;2.276;2022-12-16T10:38:14;10;8;
62591;PMS5003;48659;41.622;2.276;2022-12-16T10:40:58;7;7;
62591;PMS5003;48659;41.622;2.276;2022-12-16T10:43:28;7;7;
62591;PMS5003;48659;41.622;2.276;2022-12-16T10:46:01;7;5;
62591;PMS5003;48659;41.622;2.276;2022-12-16T10:48:37;4;4;
62591;PMS5003;48659;41.622;2.276;2022-12-16T10:51:07;8;6;
62591;PMS5003;48659;41.622;2.276;2022-12-16T10:53:39;7;5;
62591;PMS5003;48659;41.622;2.276;2022-12-16T10:56:12;7;7;
62591;PMS5003;48659;41.622;2.276;2022-12-16T10:58:59;7;7;
62591;PMS5003;48659;41.622;2.276;2022-12-16T11:01:30;7;7;
62591;PMS5003;48659;41.622;2.276;2022-12-16T11:03:57;7;6;
62591;PMS5003;48659;41.622;2.276;2022-12-16T11:06:28;6;6;
62591;PMS5003;48659;41.622;2.276;2022-12-16T11:09:13;6;6;
62591;PMS5003;48659;41.622;2.276;2022-12-16T11:11:46;10;9;
62591;PMS5003;48659;41.622;2.276;2022-12-16T11:14:16;5;5;
62591;PMS5003;48659;41.622;2.276;2022-12-16T11:16:47;7;7;
62591;PMS5003;48659;41.622;2.276;2022-12-16T11:19:38;8;6;
62591;PMS5003;48659;41.622;2.276;2022-12-16T11:22:06;6;6;
62591;PMS5003;48659;41.622;2.276;2022-12-16T11:24:39;9;7;
62591;PMS5003;48659;41.622;2.276;2022-12-16T11:27:12;6;6;
62591;PMS5003;48659;41.622;2.276;2022-12-16T11:29:49;3;3;
62591;PMS5003;48659;41.622;2.276;2022-12-16T11:32:19;6;6;
62591;PMS5003;48659;41.622;2.276;2022-12-16T11:34:51;7;6;
62591;PMS5003;48659;41.622;2.276;2022-12-16T11:37:28;7;6;
62591;PMS5003;48659;41.622;2.276;2022-12-16T11:39:58;5;5;
62591;PMS5003;48659;41.622;2.276;2022-12-16T11:42:27;7;7;
62591;PMS5003;48659;41.622;2.276;2022-12-16T11:44:59;6;6;
62591;PMS5003;48659;41.622;2.276;2022-12-16T11:47:31;6;6;
62591;PMS5003;48659;41.622;2.276;2022-12-16T11:50:07;8;8;
62591;PMS5003;48659;41.622;2.276;2022-12-16T11:52:38;7;7;
62591;PMS5003;48659;41.622;2.276;2022-12-16T11:55:14;10;10;
62591;PMS5003;48659;41.622;2.276;2022-12-16T11:57:46;7;7;
62591;PMS5003;48659;41.622;2.276;2022-12-16T12:00:27;8;8;
62591;PMS5003;48659;41.622;2.276;2022-12-16T12:02:56;10;10;
62591;PMS5003;48659;41.622;2.276;2022-12-16T12:05:31;8;8;
62591;PMS5003;48659;41.622;2.276;2022-12-16T12:08:03;7;7;
62591;PMS5003;48659;41.622;2.276;2022-12-16T12:10:42;8;8;
62591;PMS5003;48659;41.622;2.276;2022-12-16T12:13:27;7;7;
62591;PMS5003;48659;41.622;2.276;2022-12-16T12:16:10;9;8;
62591;PMS5003;48659;41.622;2.276;2022-12-16T12:18:47;7;7;
62591;PMS5003;48659;41.622;2.276;2022-12-16T12:21:23;8;8;
62591;PMS5003;48659;41.622;2.276;2022-12-16T12:23:54;8;8;
62591;PMS5003;48659;41.622;2.276;2022-12-16T12:26:29;8;8;
62591;PMS5003;48659;41.622;2.276;2022-12-16T12:29:01;13;13;
62591;PMS5003;48659;41.622;2.276;2022-12-16T12:31:38;7;7;
62591;PMS5003;48659;41.622;2.276;2022-12-16T12:34:16;9;9;
62591;PMS5003;48659;41.622;2.276;2022-12-16T12:37:01;9;9;
62591;PMS5003;48659;41.622;2.276;2022-12-16T12:39:40;7;7;
62591;PMS5003;48659;41.622;2.276;2022-12-16T12:42:14;7;7;
62591;PMS5003;48659;41.622;2.276;2022-12-16T12:44:54;9;7;
62591;PMS5003;48659;41.622;2.276;2022-12-16T12:47:30;13;12;
62591;PMS5003;48659;41.622;2.276;2022-12-16T12:50:02;7;7;
62591;PMS5003;48659;41.622;2.276;2022-12-16T12:52:44;7;7;
62591;PMS5003;48659;41.622;2.276;2022-12-16T12:55:41;9;9;
62591;PMS5003;48659;41.622;2.276;2022-12-16T12:58:14;8;8;
62591;PMS5003;48659;41.622;2.276;2022-12-16T13:00:45;10;10;
62591;PMS5003;48659;41.622;2.276;2022-12-16T13:03:17;9;8;
62591;PMS5003;48659;41.622;2.276;2022-12-16T13:05:55;9;9;
62591;PMS5003;48659;41.622;2.276;2022-12-16T13:08:32;9;9;
62591;PMS5003;48659;41.622;2.276;2022-12-16T13:11:11;8;8;
62591;PMS5003;48659;41.622;2.276;2022-12-16T13:13:39;10;9;
62591;PMS5003;48659;41.622;2.276;2022-12-16T13:16:12;10;9;
62591;PMS5003;48659;41.622;2.276;2022-12-16T13:19:40;8;8;
62591;PMS5003;48659;41.622;2.276;2022-12-16T13:22:23;6;6;
62591;PMS5003;48659;41.622;2.276;2022-12-16T13:24:53;7;7;
62591;PMS5003;48659;41.622;2.276;2022-12-16T13:27:27;7;7;
62591;PMS5003;48659;41.622;2.276;2022-12-16T13:30:19;7;6;
62591;PMS5003;48659;41.622;2.276;2022-12-16T13:32:55;7;7;
62591;PMS5003;48659;41.622;2.276;2022-12-16T13:35:26;6;6;
62591;PMS5003;48659;41.622;2.276;2022-12-16T13:37:55;10;8;
62591;PMS5003;48659;41.622;2.276;2022-12-16T13:40:24;6;6;
62591;PMS5003;48659;41.622;2.276;2022-12-16T13:42:53;7;7;
62591;PMS5003;48659;41.622;2.276;2022-12-16T13:45:28;6;6;
62591;PMS5003;48659;41.622;2.276;2022-12-16T13:48:00;7;6;
62591;PMS5003;48659;41.622;2.276;2022-12-16T13:50:35;5;5;
62591;PMS5003;48659;41.622;2.276;2022-12-16T13:53:04;8;7;
62591;PMS5003;48659;41.622;2.276;2022-12-16T13:55:37;7;7;
62591;PMS5003;48659;41.622;2.276;2022-12-16T13:58:13;9;8;
62591;PMS5003;48659;41.622;2.276;2022-12-16T14:00:56;8;8;
62591;PMS5003;48659;41.622;2.276;2022-12-16T14:03:36;7;7;
62591;PMS5003;48659;41.622;2.276;2022-12-16T14:06:09;5;5;
62591;PMS5003;48659;41.622;2.276;2022-12-16T14:08:43;6;6;
62591;PMS5003;48659;41.622;2.276;2022-12-16T14:11:13;6;5;
62591;PMS5003;48659;41.622;2.276;2022-12-16T14:13:48;8;7;
62591;PMS5003;48659;41.622;2.276;2022-12-16T14:16:32;4;4;
62591;PMS5003;48659;41.622;2.276;2022-12-16T14:19:11;8;8;
62591;PMS5003;48659;41.622;2.276;2022-12-16T14:21:50;7;6;
62591;PMS5003;48659;41.622;2.276;2022-12-16T14:24:21;7;7;
62591;PMS5003;48659;41.622;2.276;2022-12-16T14:26:51;5;5;
62591;PMS5003;48659;41.622;2.276;2022-12-16T14:29:28;5;5;
62591;PMS5003;48659;41.622;2.276;2022-12-16T14:31:58;5;5;
62591;PMS5003;48659;41.622;2.276;2022-12-16T14:34:27;6;6;
62591;PMS5003;48659;41.622;2.276;2022-12-16T14:36:57;7;7;
62591;PMS5003;48659;41.622;2.276;2022-12-16T14:39:36;9;9;
62591;PMS5003;48659;41.622;2.276;2022-12-16T14:42:12;10;8;
62591;PMS5003;48659;41.622;2.276;2022-12-16T14:44:44;6;6;
62591;PMS5003;48659;41.622;2.276;2022-12-16T14:47:14;6;5;
62591;PMS5003;48659;41.622;2.276;2022-12-16T14:49:47;6;6;
62591;PMS5003;48659;41.622;2.276;2022-12-16T14:52:18;7;6;
62591;PMS5003;48659;41.622;2.276;2022-12-16T14:54:46;9;9;
62591;PMS5003;48659;41.622;2.276;2022-12-16T14:57:15;6;5;
62591;PMS5003;48659;41.622;2.276;2022-12-16T14:59:45;7;7;
62591;PMS5003;48659;41.622;2.276;2022-12-16T15:02:23;8;8;
62591;PMS5003;48659;41.622;2.276;2022-12-16T15:04:56;7;7;
62591;PMS5003;48659;41.622;2.276;2022-12-16T15:07:24;9;7;
62591;PMS5003;48659;41.622;2.276;2022-12-16T15:09:54;8;8;
62591;PMS5003;48659;41.622;2.276;2022-12-16T15:12:23;8;8;
62591;PMS5003;48659;41.622;2.276;2022-12-16T15:14:53;9;9;
62591;PMS5003;48659;41.622;2.276;2022-12-16T15:17:28;10;10;
62591;PMS5003;48659;41.622;2.276;2022-12-16T15:20:02;9;7;
62591;PMS5003;48659;41.622;2.276;2022-12-16T15:22:32;8;8;
62591;PMS5003;48659;41.622;2.276;2022-12-16T15:25:00;8;7;
62591;PMS5003;48659;41.622;2.276;2022-12-16T15:27:33;8;8;
62591;PMS5003;48659;41.622;2.276;2022-12-16T15:30:29;10;8;
62591;PMS5003;48659;41.622;2.276;2022-12-16T15:32:59;10;10;
62591;PMS5003;48659;41.622;2.276;2022-12-16T15:35:33;7;6;
62591;PMS5003;48659;41.622;2.276;2022-12-16T15:38:03;9;9;
62591;PMS5003;48659;41.622;2.276;2022-12-16T15:40:49;8;8;
62591;PMS5003;48659;41.622;2.276;2022-12-16T15:43:19;9;9;
62591;PMS5003;48659;41.622;2.276;2022-12-16T15:45:50;8;8;
62591;PMS5003;48659;41.622;2.276;2022-12-16T15:48:18;12;10;
62591;PMS5003;48659;41.622;2.276;2022-12-16T15:50:55;10;8;
62591;PMS5003;48659;41.622;2.276;2022-12-16T15:53:28;12;9;
62591;PMS5003;48659;41.622;2.276;2022-12-16T15:55:57;9;9;
62591;PMS5003;48659;41.622;2.276;2022-12-16T15:58:26;8;8;
62591;PMS5003;48659;41.622;2.276;2022-12-16T16:00:56;13;10;
62591;PMS5003;48659;41.622;2.276;2022-12-16T16:03:25;11;11;
62591;PMS5003;48659;41.622;2.276;2022-12-16T16:05:55;11;9;
62591;PMS5003;48659;41.622;2.276;2022-12-16T16:08:27;15;15;
62591;PMS5003;48659;41.622;2.276;2022-12-16T16:10:55;13;13;
62591;PMS5003;48659;41.622;2.276;2022-12-16T16:13:27;13;11;
62591;PMS5003;48659;41.622;2.276;2022-12-16T16:15:54;12;12;
62591;PMS5003;48659;41.622;2.276;2022-12-16T16:18:22;17;13;
62591;PMS5003;48659;41.622;2.276;2022-12-16T16:20:50;12;12;
62591;PMS5003;48659;41.622;2.276;2022-12-16T16:23:17;12;11;
62591;PMS5003;48659;41.622;2.276;2022-12-16T16:25:45;16;12;
62591;PMS5003;48659;41.622;2.276;2022-12-16T16:28:13;13;13;
62591;PMS5003;48659;41.622;2.276;2022-12-16T16:30:42;17;16;
62591;PMS5003;48659;41.622;2.276;2022-12-16T16:33:10;17;16;
62591;PMS5003;48659;41.622;2.276;2022-12-16T16:35:37;15;14;
62591;PMS5003;48659;41.622;2.276;2022-12-16T16:38:05;17;15;
62591;PMS5003;48659;41.622;2.276;2022-12-16T16:40:35;17;16;
62591;PMS5003;48659;41.622;2.276;2022-12-16T16:43:03;15;15;
62591;PMS5003;48659;41.622;2.276;2022-12-16T16:45:30;18;14;
62591;PMS5003;48659;41.622;2.276;2022-12-16T16:48:02;18;15;
62591;PMS5003;48659;41.622;2.276;2022-12-16T16:50:35;20;20;
62591;PMS5003;48659;41.622;2.276;2022-12-16T16:53:02;18;18;
62591;PMS5003;48659;41.622;2.276;2022-12-16T16:55:39;17;17;